Station: Mount Bundey South (Defence)

  Atmospheric Gas Attenuation - ITU Rec 676-11   --------------- db/100km ---------------
Date Time Temp RH % AH g/m3 Dew Point Wind Direction Speed kph Gust kph Barometer mB Rainfall Since 9am 24GHz 47GHz 76GHz 122GHz 134GHz 241GHz
11 22:00 28.2 84 23.1 25.2 4 6 1012.1 0 49.3 46.3 93.4 247.4 278.8 968.8
11 21:50 28.3 83 22.95 25.1 2 4 1013.1 0 49.0 46.0 92.6 245.3 276.1 959.7
11 21:40 28.5 82 22.92 25.1 4 6 1013.1 0 48.9 45.8 92.2 244.2 274.9 955.5
11 21:30 28.6 80 22.49 24.8 4 9 1011.7 0 48.0 44.9 89.9 238.0 267.4 929.4
11 21:20 28.7 77 21.76 24.4 6 7 1013.1 0 46.4 43.5 86.3 228.6 255.8 889.0
11 21:10 28.8 76 21.6 24.1 2 4 1013.1 0 46.0 43.1 85.5 226.2 252.9 879.1
11 21:00 29 73 20.97 23.7 4 7 1011.2 0 44.7 41.7 82.1 217.4 242.2 842.0
11 20:50 29.2 69 20.04 22.9 6 6 1013.1 0 42.7 40.0 77.7 205.7 227.9 792.0
11 20:40 29.3 67 19.56 22.5 4 4 1013.1 0 41.7 39.0 75.5 199.7 220.4 766.3
11 20:30 29.6 65 19.29 22.3 4 6 1010.8 0 41.1 38.3 73.8 195.3 215.3 748.4
11 20:20 29.7 65 19.4 22.4 4 4 1013.1 0 41.3 38.6 74.3 196.7 216.9 754.1
11 20:10 29.9 67 20.21 23.3 4 6 1013.1 0 43.0 40.0 77.8 205.9 228.3 793.5
11 20:00 29.9 67 20.21 23.1 4 6 1010.4 0 43.0 39.8 77.6 205.5 227.8 792.1
11 19:50 30 65 19.71 22.7 4 6 1013.1 0 41.9 39.0 75.4 199.6 220.6 766.9
11 19:40 29.9 68 20.51 23.5 7 7 1013.1 0 43.6 40.5 79.2 209.5 232.7 809.1
11 19:30 29.8 73 21.9 24.4 4 6 1010.1 0 46.6 43.0 85.5 226.5 253.7 881.9
11 19:20 29.9 73 22.02 24.5 4 4 1013.1 0 46.8 43.3 86.2 228.2 255.7 888.9
11 19:10 29.9 73 22.02 24.7 2 4 1013.1 0 46.8 43.3 86.2 228.2 255.7 888.9
11 19:00 29.9 71 21.42 24.1 2 4 1009.7 0 45.6 42.0 83.2 220.2 245.9 854.9
11 18:50 30.1 71 21.65 24.4 0 0 1013.1 0 46.0 42.5 84.2 223.0 249.3 866.8
11 18:40 30.4 68 21.08 24 0 0 1013.1 0 44.8 41.3 81.3 215.1 239.7 833.4
11 18:30 31.1 71 22.85 25.2 0 0 1009.4 0 48.4 44.1 88.5 234.4 263.7 917.0
11 18:20 31.4 65 21.26 24.2 0 0 1013.1 0 45.0 41.2 81.0 214.5 239.2 831.8
11 18:10 31.5 60 19.73 23 0 0 1013.1 0 41.8 38.3 74.1 196.0 216.6 753.1
11 18:00 32.1 54 18.33 21.9 0 0 1009.3 0 38.9 35.5 67.3 178.0 194.8 677.4
11 17:50 32.1 54 18.33 21.9 0 0 1013.1 0 38.8 35.7 67.5 178.6 195.3 679.2
11 17:40 31.9 56 18.81 22.3 0 0 1013.1 0 39.9 36.6 69.7 184.4 202.5 704.1
11 17:30 32.2 58 19.8 22.9 0 0 1009.2 0 41.9 38.0 73.5 194.5 215.0 747.7
11 17:20 32.5 54 18.73 22.2 0 0 1013.1 0 39.6 36.2 68.8 182.1 199.8 694.8
11 17:10 32.6 52 18.13 21.7 4 4 1013.1 0 38.4 35.1 66.2 175.2 191.3 665.4
11 17:00 32.8 47 16.56 20.3 6 9 1009.1 0 35.1 32.3 59.5 157.3 169.6 589.5
11 16:50 33.3 45 16.28 20.1 4 6 1013.1 0 34.5 31.9 58.2 153.9 165.4 574.9
11 16:40 34.6 40 15.49 19.4 4 6 1013.1 0 32.7 30.2 54.3 143.4 152.8 531.3
11 16:30 35.1 37 14.71 18.6 7 11 1008.9 0 31.1 28.7 50.9 134.4 142.0 493.5
11 16:20 35.8 38 15.67 19.6 7 9 1013.1 0 33.0 30.0 54.2 143.1 152.7 531.0
11 16:10 35.8 35 14.43 18.4 6 9 1013.1 0 30.5 28.2 49.6 131.0 137.9 479.3
11 16:00 35.7 36 14.77 18.7 7 15 1008.7 0 31.2 28.6 50.7 134.0 141.6 492.3
11 15:50 35.9 36 14.92 18.9 9 11 1013.1 0 31.5 28.9 51.3 135.6 143.5 498.9
11 15:40 35.8 35 14.43 18.4 7 9 1013.1 0 30.5 28.2 49.6 131.0 137.9 479.3
11 15:30 35.8 35 14.43 18.4 7 13 1008.8 0 30.5 28.1 49.4 130.5 137.4 477.7
11 15:20 35.8 34 14.02 17.9 6 6 1013.1 0 29.6 27.6 48.2 127.1 133.1 462.5
11 15:10 35.9 35 14.51 18.4 6 7 1013.1 0 30.6 28.3 49.9 131.6 138.7 481.9
11 15:00 36.3 37 15.66 19.7 4 7 1009 0 33.0 29.7 53.6 141.6 151.2 525.7
11 14:50 35.8 36 14.84 18.8 7 7 1013.1 0 31.3 28.8 51.1 135.0 142.7 496.2
11 14:40 36.1 37 15.49 19.5 4 6 1013.1 0 32.6 29.7 53.3 140.8 150.0 521.5
11 14:30 36 37 15.41 19.4 6 13 1009.5 0 32.5 29.5 52.9 139.8 148.8 517.4
11 14:20 36.1 37 15.49 19.5 7 11 1013.1 0 32.6 29.7 53.3 140.8 150.0 521.5
11 14:10 35.7 36 14.77 18.7 2 4 1013.1 0 31.2 28.7 50.9 134.5 142.1 493.9
11 14:00 35.6 38 15.51 19.1 6 9 1009.8 0 32.7 29.7 53.5 141.5 150.8 524.3
11 13:50 35.6 41 16.73 20.7 6 9 1013.1 0 35.2 31.7 58.3 154.1 166.2 578.1
11 13:40 35.2 39 15.59 19.5 6 7 1013.1 0 32.9 30.1 54.3 143.4 152.9 531.6
11 13:30 35 42 16.61 20.2 6 13 1010.2 0 35.0 31.6 58.1 153.7 165.6 576.0
11 13:20 35 44 17.4 21.2 4 6 1013.1 0 36.6 33.0 61.3 162.2 176.0 612.3
11 13:10 34.7 43 16.74 20.6 6 7 1013.1 0 35.3 32.1 59.0 156.0 168.3 585.1
11 13:00 34.5 44 16.96 20.8 4 9 1010.7 0 35.8 32.4 59.9 158.3 171.2 595.4
11 12:50 34.5 43 16.57 20.4 0 2 1013.1 0 35.0 31.9 58.5 154.6 166.5 579.1
11 12:40 34.3 44 16.78 20.6 4 6 1013.1 0 35.4 32.3 59.5 157.2 169.6 589.9
11 12:30 34.4 48 18.4 21.8 4 9 1011.2 0 38.8 34.8 65.7 173.9 190.3 661.9
11 12:20 33.8 50 18.57 22.2 4 6 1013.1 0 39.2 35.4 67.0 177.4 194.3 675.8
11 12:10 34 50 18.77 22.4 7 9 1013.1 0 39.6 35.6 67.7 179.1 196.5 683.5
11 12:00 33.7 50 18.48 22.1 4 9 1011.7 0 39.0 35.2 66.7 176.4 193.1 671.8
11 11:50 33.3 52 18.81 22.1 6 7 1013.1 0 39.7 36.0 68.5 181.2 198.8 691.5
11 11:40 33.2 52 18.71 22.3 6 9 1013.1 0 39.5 35.9 68.1 180.3 197.7 687.6
11 11:30 33.3 53 19.18 22.7 4 7 1012.5 0 40.5 36.6 70.0 185.2 203.8 708.9
11 11:20 33 53 18.87 22.4 4 4 1013.1 0 39.9 36.2 69.0 182.5 200.4 697.0
11 11:10 32.7 55 19.28 22.7 2 2 1013.1 0 40.7 37.0 71.0 187.9 206.9 719.5
11 11:00 32.3 55 18.87 22.1 4 7 1012.8 0 39.9 36.5 69.6 184.1 202.2 703.2
11 10:50 32.6 55 19.18 22.6 6 7 1013.1 0 40.6 36.9 70.7 187.0 205.8 715.6
11 10:40 32 58 19.59 22.9 2 4 1013.1 0 41.5 37.9 73.0 193.1 213.2 741.3
11 10:30 31.7 60 19.94 23 4 7 1013 0 42.2 38.6 74.8 197.9 219.0 761.5
11 10:20 31.8 58 19.38 22.7 0 0 1013.1 0 41.0 37.6 72.3 191.2 210.7 732.8
11 10:10 31.2 60 19.41 22.7 4 4 1013.1 0 41.2 37.9 72.9 193.0 212.8 740.1
11 10:00 31.2 63 20.38 23.3 2 7 1013.1 0 43.2 39.6 77.2 204.4 226.8 788.8
11 09:50 31 63 20.17 23.3 4 4 1013.1 0 42.8 39.4 76.5 202.5 224.4 780.2
11 09:40 30.1 67 20.43 23.5 4 4 1013.1 0 43.4 40.3 78.6 208.0 230.9 802.8
11 09:30 29.9 67 20.21 23.1 2 6 1013 0 43.0 39.9 77.8 205.9 228.2 793.5
11 09:20 29.7 69 20.59 23.4 2 4 1013.1 0 43.8 40.7 79.7 211.1 234.5 815.4
11 09:10 29.1 72 20.8 23.7 2 4 1013.1 0 44.3 41.4 81.3 215.3 239.6 832.9
11 09:00 29.3 76 22.19 24.6 0 2 1013.1 0 47.2 44.0 87.7 232.2 260.4 905.2
11 08:50 28.5 81 22.64 24.9 0 0 1013.1 0 48.3 45.3 90.9 240.6 270.4 939.8
11 08:40 28.1 81 22.15 24.5 0 0 1013.1 0 47.3 44.5 88.9 235.4 264.0 917.6
11 08:30 27.6 86 22.88 25 2 4 1012.9 0 48.9 46.3 93.1 246.6 277.6 964.7
11 08:20 26.8 88 22.4 24.6 4 4 1013.1 0 48.0 45.8 91.7 242.9 272.8 947.8
11 08:10 26.4 89 22.16 24.4 6 6 1013.1 0 47.5 45.5 91.0 241.0 270.3 939.2
11 08:00 26.1 91 22.28 24.5 0 0 1012.9 0 47.8 45.9 92.0 243.5 273.4 949.8
11 07:50 25.4 94 22.13 24.3 0 0 1013.1 0 47.6 46.0 92.1 243.8 273.5 950.2
11 07:40 24.9 96 21.97 24.2 0 0 1013.1 0 47.3 45.9 91.9 243.3 272.7 947.4
11 07:30 24.6 97 21.83 24.1 2 4 1012.6 0 47.1 45.8 91.5 242.3 271.4 942.8
11 07:20 24.4 97 21.59 23.9 0 0 1013.1 0 46.6 45.5 90.6 239.8 268.3 931.8
11 07:10 23.9 97 20.98 23.4 0 0 1013.1 0 45.3 44.5 88.1 233.1 260.0 902.9
11 07:00 23.8 97 20.86 23.3 0 0 1012.3 0 45.1 44.3 87.5 231.7 258.2 896.7
11 06:50 23.8 97 20.86 23.3 0 0 1013.1 0 45.1 44.3 87.6 231.8 258.3 897.2
11 06:40 23.9 96 20.77 23.2 0 0 1013.1 0 44.9 44.1 87.0 230.3 256.5 890.9
11 06:30 23.9 96 20.77 23.2 0 0 1011.8 0 44.9 44.0 86.9 230.1 256.3 890.1
11 06:20 24 96 20.89 23.3 0 0 1013.1 0 45.1 44.2 87.5 231.6 258.1 896.5
11 06:10 24.1 96 21 23.4 0 0 1013.1 0 45.3 44.4 88.0 232.8 259.6 901.6
11 06:00 24.3 97 21.46 23.8 0 0 1011.4 0 46.3 45.2 89.9 238.1 266.2 924.5
11 05:50 24.4 97 21.59 23.9 0 0 1013.1 0 46.6 45.5 90.6 239.8 268.3 931.8
11 05:40 24.4 96 21.36 23.7 0 0 1013.1 0 46.1 45.0 89.4 236.7 264.5 918.5
11 04:50 24.7 95 21.5 23.8 0 0 1013.1 0 46.3 45.1 89.8 237.6 265.7 922.9

Last Refresh: 11-Apr-2021 22:14:57

Bureau of Meteorology